sensor_id;sensor_type;location;lat;lon;timestamp;temperature;humidity
69628;DHT22;56850;51.984;5.088;2022-07-18T00:02:13;24.30;45.60
69628;DHT22;56850;51.984;5.088;2022-07-18T00:04:41;24.30;45.50
69628;DHT22;56850;51.984;5.088;2022-07-18T00:07:09;24.30;45.50
69628;DHT22;56850;51.984;5.088;2022-07-18T00:09:40;24.20;45.40
69628;DHT22;56850;51.984;5.088;2022-07-18T00:12:08;24.20;45.50
69628;DHT22;56850;51.984;5.088;2022-07-18T00:14:36;24.10;45.60
69628;DHT22;56850;51.984;5.088;2022-07-18T00:17:04;24.10;45.60
69628;DHT22;56850;51.984;5.088;2022-07-18T00:19:31;24.00;45.70
69628;DHT22;56850;51.984;5.088;2022-07-18T00:21:58;24.00;45.80
69628;DHT22;56850;51.984;5.088;2022-07-18T00:24:25;23.90;45.90
69628;DHT22;56850;51.984;5.088;2022-07-18T00:26:52;23.80;46.10
69628;DHT22;56850;51.984;5.088;2022-07-18T00:29:19;23.70;46.40
69628;DHT22;56850;51.984;5.088;2022-07-18T00:31:46;23.60;46.50
69628;DHT22;56850;51.984;5.088;2022-07-18T00:34:13;23.40;46.80
69628;DHT22;56850;51.984;5.088;2022-07-18T00:36:40;23.30;47.00
69628;DHT22;56850;51.984;5.088;2022-07-18T00:39:07;23.30;47.20
69628;DHT22;56850;51.984;5.088;2022-07-18T00:41:34;23.30;47.20
69628;DHT22;56850;51.984;5.088;2022-07-18T00:44:01;23.40;47.10
69628;DHT22;56850;51.984;5.088;2022-07-18T00:46:28;23.40;46.90
69628;DHT22;56850;51.984;5.088;2022-07-18T00:48:56;23.50;46.80
69628;DHT22;56850;51.984;5.088;2022-07-18T00:51:23;23.50;46.70
69628;DHT22;56850;51.984;5.088;2022-07-18T00:53:50;23.50;46.60
69628;DHT22;56850;51.984;5.088;2022-07-18T00:56:19;23.50;46.70
69628;DHT22;56850;51.984;5.088;2022-07-18T00:58:46;23.50;46.60
69628;DHT22;56850;51.984;5.088;2022-07-18T01:01:13;23.50;46.60
69628;DHT22;56850;51.984;5.088;2022-07-18T01:03:59;23.50;46.60
69628;DHT22;56850;51.984;5.088;2022-07-18T01:06:26;23.50;46.70
69628;DHT22;56850;51.984;5.088;2022-07-18T01:08:53;23.50;46.80
69628;DHT22;56850;51.984;5.088;2022-07-18T01:11:20;23.50;46.90
69628;DHT22;56850;51.984;5.088;2022-07-18T01:13:49;23.40;47.00
69628;DHT22;56850;51.984;5.088;2022-07-18T01:16:17;23.40;47.10
69628;DHT22;56850;51.984;5.088;2022-07-18T01:18:49;23.30;47.30
69628;DHT22;56850;51.984;5.088;2022-07-18T01:21:16;23.30;47.40
69628;DHT22;56850;51.984;5.088;2022-07-18T01:23:43;23.20;47.60
69628;DHT22;56850;51.984;5.088;2022-07-18T01:26:13;23.20;47.70
69628;DHT22;56850;51.984;5.088;2022-07-18T01:28:40;23.10;47.90
69628;DHT22;56850;51.984;5.088;2022-07-18T01:31:08;23.10;47.90
69628;DHT22;56850;51.984;5.088;2022-07-18T01:33:35;23.00;48.10
69628;DHT22;56850;51.984;5.088;2022-07-18T01:36:04;23.00;48.20
69628;DHT22;56850;51.984;5.088;2022-07-18T01:38:32;23.00;48.20
69628;DHT22;56850;51.984;5.088;2022-07-18T01:41:00;22.90;48.20
69628;DHT22;56850;51.984;5.088;2022-07-18T01:43:27;22.90;48.30
69628;DHT22;56850;51.984;5.088;2022-07-18T01:45:54;22.90;48.30
69628;DHT22;56850;51.984;5.088;2022-07-18T01:48:22;22.90;48.20
69628;DHT22;56850;51.984;5.088;2022-07-18T01:50:52;23.00;48.20
69628;DHT22;56850;51.984;5.088;2022-07-18T01:53:19;23.00;48.30
69628;DHT22;56850;51.984;5.088;2022-07-18T01:55:46;22.90;48.20
69628;DHT22;56850;51.984;5.088;2022-07-18T01:58:13;22.90;48.30
69628;DHT22;56850;51.984;5.088;2022-07-18T02:00:41;22.80;48.40
69628;DHT22;56850;51.984;5.088;2022-07-18T02:03:07;22.80;48.50
69628;DHT22;56850;51.984;5.088;2022-07-18T02:05:35;22.70;48.40
69628;DHT22;56850;51.984;5.088;2022-07-18T02:08:02;22.70;48.30
69628;DHT22;56850;51.984;5.088;2022-07-18T02:10:29;22.70;48.30
69628;DHT22;56850;51.984;5.088;2022-07-18T02:12:56;22.70;48.30
69628;DHT22;56850;51.984;5.088;2022-07-18T02:15:23;22.70;48.20
69628;DHT22;56850;51.984;5.088;2022-07-18T02:17:50;22.70;48.30
69628;DHT22;56850;51.984;5.088;2022-07-18T02:20:17;22.70;48.20
69628;DHT22;56850;51.984;5.088;2022-07-18T02:22:44;22.60;48.30
69628;DHT22;56850;51.984;5.088;2022-07-18T02:25:11;22.60;48.30
69628;DHT22;56850;51.984;5.088;2022-07-18T02:27:39;22.60;48.30
69628;DHT22;56850;51.984;5.088;2022-07-18T02:30:07;22.50;48.40
69628;DHT22;56850;51.984;5.088;2022-07-18T02:32:35;22.50;48.40
69628;DHT22;56850;51.984;5.088;2022-07-18T02:35:05;22.50;48.40
69628;DHT22;56850;51.984;5.088;2022-07-18T02:37:34;22.50;48.40
69628;DHT22;56850;51.984;5.088;2022-07-18T02:40:01;22.50;48.40
69628;DHT22;56850;51.984;5.088;2022-07-18T02:42:28;22.50;48.40
69628;DHT22;56850;51.984;5.088;2022-07-18T02:44:55;22.40;48.40
69628;DHT22;56850;51.984;5.088;2022-07-18T02:47:22;22.40;48.30
69628;DHT22;56850;51.984;5.088;2022-07-18T02:49:49;22.40;48.40
69628;DHT22;56850;51.984;5.088;2022-07-18T02:52:15;22.40;48.40
69628;DHT22;56850;51.984;5.088;2022-07-18T02:54:42;22.40;48.50
69628;DHT22;56850;51.984;5.088;2022-07-18T02:57:09;22.30;48.50
69628;DHT22;56850;51.984;5.088;2022-07-18T02:59:36;22.30;48.60
69628;DHT22;56850;51.984;5.088;2022-07-18T03:02:03;22.30;48.70
69628;DHT22;56850;51.984;5.088;2022-07-18T03:04:30;22.30;48.90
69628;DHT22;56850;51.984;5.088;2022-07-18T03:06:57;22.30;48.90
69628;DHT22;56850;51.984;5.088;2022-07-18T03:09:24;22.30;49.10
69628;DHT22;56850;51.984;5.088;2022-07-18T03:11:55;22.20;49.30
69628;DHT22;56850;51.984;5.088;2022-07-18T03:14:23;22.20;49.40
69628;DHT22;56850;51.984;5.088;2022-07-18T03:16:49;22.20;49.60
69628;DHT22;56850;51.984;5.088;2022-07-18T03:19:16;22.20;49.70
69628;DHT22;56850;51.984;5.088;2022-07-18T03:21:43;22.20;49.80
69628;DHT22;56850;51.984;5.088;2022-07-18T03:24:11;22.10;49.90
69628;DHT22;56850;51.984;5.088;2022-07-18T03:26:38;22.10;50.00
69628;DHT22;56850;51.984;5.088;2022-07-18T03:29:05;22.10;50.10
69628;DHT22;56850;51.984;5.088;2022-07-18T03:31:32;22.00;50.20
69628;DHT22;56850;51.984;5.088;2022-07-18T03:33:59;22.00;50.30
69628;DHT22;56850;51.984;5.088;2022-07-18T03:36:26;22.00;50.40
69628;DHT22;56850;51.984;5.088;2022-07-18T03:38:53;22.00;50.40
69628;DHT22;56850;51.984;5.088;2022-07-18T03:41:20;22.00;50.30
69628;DHT22;56850;51.984;5.088;2022-07-18T03:43:47;21.90;50.40
69628;DHT22;56850;51.984;5.088;2022-07-18T03:46:14;21.90;50.40
69628;DHT22;56850;51.984;5.088;2022-07-18T03:48:41;21.90;50.40
69628;DHT22;56850;51.984;5.088;2022-07-18T03:51:08;21.90;50.40
69628;DHT22;56850;51.984;5.088;2022-07-18T03:53:35;21.80;50.50
69628;DHT22;56850;51.984;5.088;2022-07-18T03:56:02;21.80;50.40
69628;DHT22;56850;51.984;5.088;2022-07-18T03:58:29;21.80;50.40
69628;DHT22;56850;51.984;5.088;2022-07-18T04:00:56;21.80;50.50
69628;DHT22;56850;51.984;5.088;2022-07-18T04:03:23;21.80;50.50
69628;DHT22;56850;51.984;5.088;2022-07-18T04:05:50;21.80;50.50
69628;DHT22;56850;51.984;5.088;2022-07-18T04:08:17;21.80;50.60
69628;DHT22;56850;51.984;5.088;2022-07-18T04:10:44;21.70;50.60
69628;DHT22;56850;51.984;5.088;2022-07-18T04:13:11;21.70;50.60
69628;DHT22;56850;51.984;5.088;2022-07-18T04:15:39;21.70;50.60
69628;DHT22;56850;51.984;5.088;2022-07-18T04:18:07;21.60;50.50
69628;DHT22;56850;51.984;5.088;2022-07-18T04:20:36;21.60;50.60
69628;DHT22;56850;51.984;5.088;2022-07-18T04:23:05;21.60;50.60
69628;DHT22;56850;51.984;5.088;2022-07-18T04:25:40;21.60;50.60
69628;DHT22;56850;51.984;5.088;2022-07-18T04:28:10;21.60;50.60
69628;DHT22;56850;51.984;5.088;2022-07-18T04:30:39;21.60;50.50
69628;DHT22;56850;51.984;5.088;2022-07-18T04:33:08;21.60;50.50
69628;DHT22;56850;51.984;5.088;2022-07-18T04:35:35;21.60;50.40
69628;DHT22;56850;51.984;5.088;2022-07-18T04:38:04;21.60;50.40
69628;DHT22;56850;51.984;5.088;2022-07-18T04:40:31;21.60;50.30
69628;DHT22;56850;51.984;5.088;2022-07-18T04:42:58;21.50;50.20
69628;DHT22;56850;51.984;5.088;2022-07-18T04:45:25;21.60;50.10
69628;DHT22;56850;51.984;5.088;2022-07-18T04:47:53;21.50;50.00
69628;DHT22;56850;51.984;5.088;2022-07-18T04:50:22;21.50;49.90
69628;DHT22;56850;51.984;5.088;2022-07-18T04:52:50;21.50;49.80
69628;DHT22;56850;51.984;5.088;2022-07-18T04:55:19;21.60;49.70
69628;DHT22;56850;51.984;5.088;2022-07-18T04:57:48;21.50;49.60
69628;DHT22;56850;51.984;5.088;2022-07-18T05:00:20;21.60;49.50
69628;DHT22;56850;51.984;5.088;2022-07-18T05:02:49;21.60;49.50
69628;DHT22;56850;51.984;5.088;2022-07-18T05:05:17;21.60;49.40
69628;DHT22;56850;51.984;5.088;2022-07-18T05:07:46;21.60;49.40
69628;DHT22;56850;51.984;5.088;2022-07-18T05:10:14;21.60;49.50
69628;DHT22;56850;51.984;5.088;2022-07-18T05:12:42;21.70;49.40
69628;DHT22;56850;51.984;5.088;2022-07-18T05:15:14;21.70;49.30
69628;DHT22;56850;51.984;5.088;2022-07-18T05:17:42;21.70;49.30
69628;DHT22;56850;51.984;5.088;2022-07-18T05:20:11;21.70;49.20
69628;DHT22;56850;51.984;5.088;2022-07-18T05:22:39;21.70;49.30
69628;DHT22;56850;51.984;5.088;2022-07-18T05:25:07;21.70;49.20
69628;DHT22;56850;51.984;5.088;2022-07-18T05:27:35;21.70;49.20
69628;DHT22;56850;51.984;5.088;2022-07-18T05:30:04;21.80;49.20
69628;DHT22;56850;51.984;5.088;2022-07-18T05:32:32;21.80;49.10
69628;DHT22;56850;51.984;5.088;2022-07-18T05:34:59;21.80;49.20
69628;DHT22;56850;51.984;5.088;2022-07-18T05:37:26;21.80;49.10
69628;DHT22;56850;51.984;5.088;2022-07-18T05:39:53;21.80;49.10
69628;DHT22;56850;51.984;5.088;2022-07-18T05:42:20;21.80;49.00
69628;DHT22;56850;51.984;5.088;2022-07-18T05:45:07;21.80;49.00
69628;DHT22;56850;51.984;5.088;2022-07-18T05:47:34;21.80;48.90
69628;DHT22;56850;51.984;5.088;2022-07-18T05:50:02;21.90;48.90
69628;DHT22;56850;51.984;5.088;2022-07-18T05:52:29;21.90;48.90
69628;DHT22;56850;51.984;5.088;2022-07-18T05:54:56;21.90;48.80
69628;DHT22;56850;51.984;5.088;2022-07-18T05:57:23;21.90;48.80
69628;DHT22;56850;51.984;5.088;2022-07-18T05:59:50;21.90;48.80
69628;DHT22;56850;51.984;5.088;2022-07-18T06:02:16;21.90;48.90
69628;DHT22;56850;51.984;5.088;2022-07-18T06:04:43;21.90;49.00
69628;DHT22;56850;51.984;5.088;2022-07-18T06:07:30;21.90;49.20
69628;DHT22;56850;51.984;5.088;2022-07-18T06:09:57;21.90;49.30
69628;DHT22;56850;51.984;5.088;2022-07-18T06:12:24;22.00;49.50
69628;DHT22;56850;51.984;5.088;2022-07-18T06:14:51;22.00;49.70
69628;DHT22;56850;51.984;5.088;2022-07-18T06:17:18;22.00;49.70
69628;DHT22;56850;51.984;5.088;2022-07-18T06:19:45;22.00;49.80
69628;DHT22;56850;51.984;5.088;2022-07-18T06:22:12;22.00;49.80
69628;DHT22;56850;51.984;5.088;2022-07-18T06:24:39;22.10;49.80
69628;DHT22;56850;51.984;5.088;2022-07-18T06:27:06;22.10;49.90
69628;DHT22;56850;51.984;5.088;2022-07-18T06:29:32;22.10;49.80
69628;DHT22;56850;51.984;5.088;2022-07-18T06:31:59;22.20;49.70
69628;DHT22;56850;51.984;5.088;2022-07-18T06:34:26;22.20;49.60
69628;DHT22;56850;51.984;5.088;2022-07-18T06:36:53;22.20;49.50
69628;DHT22;56850;51.984;5.088;2022-07-18T06:39:20;22.30;49.60
69628;DHT22;56850;51.984;5.088;2022-07-18T06:41:47;22.30;49.50
69628;DHT22;56850;51.984;5.088;2022-07-18T06:44:14;22.30;49.50
69628;DHT22;56850;51.984;5.088;2022-07-18T06:46:41;22.40;49.60
69628;DHT22;56850;51.984;5.088;2022-07-18T06:49:08;22.50;49.60
69628;DHT22;56850;51.984;5.088;2022-07-18T06:51:35;22.60;49.50
69628;DHT22;56850;51.984;5.088;2022-07-18T06:54:03;22.60;49.30
69628;DHT22;56850;51.984;5.088;2022-07-18T06:56:30;22.70;49.20
69628;DHT22;56850;51.984;5.088;2022-07-18T06:58:57;22.70;49.20
69628;DHT22;56850;51.984;5.088;2022-07-18T07:01:23;22.80;49.30
69628;DHT22;56850;51.984;5.088;2022-07-18T07:03:51;22.90;49.30
69628;DHT22;56850;51.984;5.088;2022-07-18T07:06:19;23.00;49.20
69628;DHT22;56850;51.984;5.088;2022-07-18T07:08:46;23.10;49.00
69628;DHT22;56850;51.984;5.088;2022-07-18T07:11:13;23.10;48.90
69628;DHT22;56850;51.984;5.088;2022-07-18T07:13:40;23.30;48.80
69628;DHT22;56850;51.984;5.088;2022-07-18T07:16:08;23.30;48.70
69628;DHT22;56850;51.984;5.088;2022-07-18T07:18:35;23.40;48.70
69628;DHT22;56850;51.984;5.088;2022-07-18T07:21:02;23.50;48.60
69628;DHT22;56850;51.984;5.088;2022-07-18T07:23:29;23.60;48.60
69628;DHT22;56850;51.984;5.088;2022-07-18T07:25:56;23.70;48.60
69628;DHT22;56850;51.984;5.088;2022-07-18T07:28:23;23.80;48.40
69628;DHT22;56850;51.984;5.088;2022-07-18T07:30:49;24.00;48.20
69628;DHT22;56850;51.984;5.088;2022-07-18T07:33:16;24.10;48.00
69628;DHT22;56850;51.984;5.088;2022-07-18T07:35:43;24.20;48.10
69628;DHT22;56850;51.984;5.088;2022-07-18T07:38:10;24.30;48.10
69628;DHT22;56850;51.984;5.088;2022-07-18T07:40:47;24.40;47.90
69628;DHT22;56850;51.984;5.088;2022-07-18T07:43:15;24.60;47.60
69628;DHT22;56850;51.984;5.088;2022-07-18T07:45:47;24.70;47.50
69628;DHT22;56850;51.984;5.088;2022-07-18T07:48:16;24.80;47.40
69628;DHT22;56850;51.984;5.088;2022-07-18T07:50:43;25.00;47.20
69628;DHT22;56850;51.984;5.088;2022-07-18T07:53:10;25.10;46.90
69628;DHT22;56850;51.984;5.088;2022-07-18T07:55:37;25.20;46.80
69628;DHT22;56850;51.984;5.088;2022-07-18T07:58:04;25.40;46.70
69628;DHT22;56850;51.984;5.088;2022-07-18T08:00:32;25.50;46.60
69628;DHT22;56850;51.984;5.088;2022-07-18T08:03:04;25.70;46.30
69628;DHT22;56850;51.984;5.088;2022-07-18T08:05:37;25.80;46.00
69628;DHT22;56850;51.984;5.088;2022-07-18T08:08:05;25.90;46.00
69628;DHT22;56850;51.984;5.088;2022-07-18T08:10:33;26.20;45.80
69628;DHT22;56850;51.984;5.088;2022-07-18T08:13:08;26.30;45.20
69628;DHT22;56850;51.984;5.088;2022-07-18T08:15:36;26.50;44.70
69628;DHT22;56850;51.984;5.088;2022-07-18T08:18:04;26.60;44.30
69628;DHT22;56850;51.984;5.088;2022-07-18T08:20:31;26.80;44.00
69628;DHT22;56850;51.984;5.088;2022-07-18T08:23:05;26.90;43.60
69628;DHT22;56850;51.984;5.088;2022-07-18T08:25:34;27.00;43.40
69628;DHT22;56850;51.984;5.088;2022-07-18T08:28:02;27.20;43.40
69628;DHT22;56850;51.984;5.088;2022-07-18T08:30:30;27.40;43.30
69628;DHT22;56850;51.984;5.088;2022-07-18T08:32:57;27.50;42.80
69628;DHT22;56850;51.984;5.088;2022-07-18T08:35:25;27.70;42.70
69628;DHT22;56850;51.984;5.088;2022-07-18T08:37:52;27.80;42.20
69628;DHT22;56850;51.984;5.088;2022-07-18T08:40:19;28.00;41.50
69628;DHT22;56850;51.984;5.088;2022-07-18T08:42:50;28.10;41.30
69628;DHT22;56850;51.984;5.088;2022-07-18T08:45:37;28.30;40.50
69628;DHT22;56850;51.984;5.088;2022-07-18T08:48:04;28.40;40.40
69628;DHT22;56850;51.984;5.088;2022-07-18T08:50:31;28.50;40.20
69628;DHT22;56850;51.984;5.088;2022-07-18T08:52:59;28.50;40.30
69628;DHT22;56850;51.984;5.088;2022-07-18T08:55:26;28.60;40.30
69628;DHT22;56850;51.984;5.088;2022-07-18T08:57:53;28.80;39.70
69628;DHT22;56850;51.984;5.088;2022-07-18T09:00:21;29.00;39.40
69628;DHT22;56850;51.984;5.088;2022-07-18T09:03:02;29.20;39.00
69628;DHT22;56850;51.984;5.088;2022-07-18T09:05:31;29.20;39.00
69628;DHT22;56850;51.984;5.088;2022-07-18T09:08:17;29.30;39.00
69628;DHT22;56850;51.984;5.088;2022-07-18T09:13:23;29.40;38.50
69628;DHT22;56850;51.984;5.088;2022-07-18T09:16:04;29.40;37.60
69628;DHT22;56850;51.984;5.088;2022-07-18T09:18:38;29.40;37.70
69628;DHT22;56850;51.984;5.088;2022-07-18T09:21:10;29.50;37.80
69628;DHT22;56850;51.984;5.088;2022-07-18T09:23:39;29.60;38.00
69628;DHT22;56850;51.984;5.088;2022-07-18T09:26:08;29.70;37.20
69628;DHT22;56850;51.984;5.088;2022-07-18T09:28:52;29.90;36.90
69628;DHT22;56850;51.984;5.088;2022-07-18T09:31:50;30.00;36.70
69628;DHT22;56850;51.984;5.088;2022-07-18T09:34:38;30.10;36.90
69628;DHT22;56850;51.984;5.088;2022-07-18T09:37:12;30.40;36.80
69628;DHT22;56850;51.984;5.088;2022-07-18T09:39:40;30.50;36.60
69628;DHT22;56850;51.984;5.088;2022-07-18T09:42:17;30.60;36.50
69628;DHT22;56850;51.984;5.088;2022-07-18T09:45:00;30.80;36.40
69628;DHT22;56850;51.984;5.088;2022-07-18T09:47:27;31.10;35.80
69628;DHT22;56850;51.984;5.088;2022-07-18T09:49:54;31.30;35.60
69628;DHT22;56850;51.984;5.088;2022-07-18T09:52:22;31.40;35.40
69628;DHT22;56850;51.984;5.088;2022-07-18T09:54:49;31.60;35.60
69628;DHT22;56850;51.984;5.088;2022-07-18T09:57:27;31.70;35.60
69628;DHT22;56850;51.984;5.088;2022-07-18T09:59:54;31.90;35.30
69628;DHT22;56850;51.984;5.088;2022-07-18T10:02:21;32.10;35.10
69628;DHT22;56850;51.984;5.088;2022-07-18T10:04:49;32.20;34.90
69628;DHT22;56850;51.984;5.088;2022-07-18T10:07:16;32.40;34.50
69628;DHT22;56850;51.984;5.088;2022-07-18T10:09:45;32.50;34.30
69628;DHT22;56850;51.984;5.088;2022-07-18T10:12:15;32.60;33.30
69628;DHT22;56850;51.984;5.088;2022-07-18T10:14:44;32.60;32.60
69628;DHT22;56850;51.984;5.088;2022-07-18T10:17:11;32.60;32.60
69628;DHT22;56850;51.984;5.088;2022-07-18T10:19:38;32.70;32.80
69628;DHT22;56850;51.984;5.088;2022-07-18T10:22:06;32.70;32.60
69628;DHT22;56850;51.984;5.088;2022-07-18T10:24:39;32.80;32.50
69628;DHT22;56850;51.984;5.088;2022-07-18T10:27:16;33.00;32.00
69628;DHT22;56850;51.984;5.088;2022-07-18T10:30:09;33.00;31.50
69628;DHT22;56850;51.984;5.088;2022-07-18T10:32:37;33.00;31.30
69628;DHT22;56850;51.984;5.088;2022-07-18T10:35:05;33.00;32.00
69628;DHT22;56850;51.984;5.088;2022-07-18T10:37:37;33.10;32.50
69628;DHT22;56850;51.984;5.088;2022-07-18T10:43:31;33.60;32.00
69628;DHT22;56850;51.984;5.088;2022-07-18T10:45:59;33.80;32.00
69628;DHT22;56850;51.984;5.088;2022-07-18T10:51:22;34.10;31.50
69628;DHT22;56850;51.984;5.088;2022-07-18T10:58:55;34.60;31.00
69628;DHT22;56850;51.984;5.088;2022-07-18T11:01:23;34.80;30.90
69628;DHT22;56850;51.984;5.088;2022-07-18T11:04:29;34.90;30.60
69628;DHT22;56850;51.984;5.088;2022-07-18T11:09:40;34.90;31.30
69628;DHT22;56850;51.984;5.088;2022-07-18T11:15:12;35.50;29.60
69628;DHT22;56850;51.984;5.088;2022-07-18T11:20:36;35.50;29.50
69628;DHT22;56850;51.984;5.088;2022-07-18T11:23:18;35.50;29.50
69628;DHT22;56850;51.984;5.088;2022-07-18T11:25:47;35.50;29.40
69628;DHT22;56850;51.984;5.088;2022-07-18T11:28:26;35.50;29.10
69628;DHT22;56850;51.984;5.088;2022-07-18T11:31:06;35.50;29.20
69628;DHT22;56850;51.984;5.088;2022-07-18T11:33:36;35.60;29.30
69628;DHT22;56850;51.984;5.088;2022-07-18T11:36:08;35.80;29.30
69628;DHT22;56850;51.984;5.088;2022-07-18T11:38:38;35.90;29.00
69628;DHT22;56850;51.984;5.088;2022-07-18T11:41:06;36.00;27.60
69628;DHT22;56850;51.984;5.088;2022-07-18T11:43:33;36.00;27.10
69628;DHT22;56850;51.984;5.088;2022-07-18T11:46:05;35.90;26.90
69628;DHT22;56850;51.984;5.088;2022-07-18T11:48:40;36.00;26.70
69628;DHT22;56850;51.984;5.088;2022-07-18T11:51:16;36.20;26.60
69628;DHT22;56850;51.984;5.088;2022-07-18T11:53:51;36.40;26.70
69628;DHT22;56850;51.984;5.088;2022-07-18T11:56:20;36.50;26.30
69628;DHT22;56850;51.984;5.088;2022-07-18T11:58:49;36.60;25.90
69628;DHT22;56850;51.984;5.088;2022-07-18T12:01:16;36.70;25.90
69628;DHT22;56850;51.984;5.088;2022-07-18T12:03:45;36.80;25.80
69628;DHT22;56850;51.984;5.088;2022-07-18T12:06:15;36.80;25.80
69628;DHT22;56850;51.984;5.088;2022-07-18T12:08:44;37.00;25.80
69628;DHT22;56850;51.984;5.088;2022-07-18T12:11:16;37.10;25.70
69628;DHT22;56850;51.984;5.088;2022-07-18T12:13:53;37.20;25.60
69628;DHT22;56850;51.984;5.088;2022-07-18T12:16:24;37.20;25.70
69628;DHT22;56850;51.984;5.088;2022-07-18T12:18:53;37.20;25.40
69628;DHT22;56850;51.984;5.088;2022-07-18T12:21:20;37.20;25.00
69628;DHT22;56850;51.984;5.088;2022-07-18T12:23:47;37.30;25.20
69628;DHT22;56850;51.984;5.088;2022-07-18T12:26:30;37.40;25.10
69628;DHT22;56850;51.984;5.088;2022-07-18T12:29:13;37.40;25.00
69628;DHT22;56850;51.984;5.088;2022-07-18T12:31:44;37.40;25.20
69628;DHT22;56850;51.984;5.088;2022-07-18T12:34:13;37.40;25.50
69628;DHT22;56850;51.984;5.088;2022-07-18T12:39:31;37.60;25.90
69628;DHT22;56850;51.984;5.088;2022-07-18T12:41:59;37.70;25.70
69628;DHT22;56850;51.984;5.088;2022-07-18T12:44:27;37.70;25.70
69628;DHT22;56850;51.984;5.088;2022-07-18T12:46:57;37.80;25.50
69628;DHT22;56850;51.984;5.088;2022-07-18T12:49:24;37.90;25.30
69628;DHT22;56850;51.984;5.088;2022-07-18T12:51:51;38.00;25.60
69628;DHT22;56850;51.984;5.088;2022-07-18T12:54:18;38.00;25.80
69628;DHT22;56850;51.984;5.088;2022-07-18T12:56:45;38.20;25.90
69628;DHT22;56850;51.984;5.088;2022-07-18T12:59:12;38.20;26.00
69628;DHT22;56850;51.984;5.088;2022-07-18T13:01:39;38.30;26.00
69628;DHT22;56850;51.984;5.088;2022-07-18T13:04:06;38.40;25.40
69628;DHT22;56850;51.984;5.088;2022-07-18T13:06:33;38.40;24.50
69628;DHT22;56850;51.984;5.088;2022-07-18T13:09:00;38.30;24.00
69628;DHT22;56850;51.984;5.088;2022-07-18T13:11:27;38.20;23.30
69628;DHT22;56850;51.984;5.088;2022-07-18T13:13:57;38.30;22.20
69628;DHT22;56850;51.984;5.088;2022-07-18T13:16:24;38.30;22.10
69628;DHT22;56850;51.984;5.088;2022-07-18T13:18:54;38.40;22.20
69628;DHT22;56850;51.984;5.088;2022-07-18T13:21:20;38.60;22.20
69628;DHT22;56850;51.984;5.088;2022-07-18T13:23:47;38.60;21.70
69628;DHT22;56850;51.984;5.088;2022-07-18T13:26:14;38.50;21.90
69628;DHT22;56850;51.984;5.088;2022-07-18T13:28:42;38.40;21.80
69628;DHT22;56850;51.984;5.088;2022-07-18T13:31:09;38.30;22.20
69628;DHT22;56850;51.984;5.088;2022-07-18T13:33:36;38.30;22.50
69628;DHT22;56850;51.984;5.088;2022-07-18T13:36:03;38.50;22.60
69628;DHT22;56850;51.984;5.088;2022-07-18T13:38:30;38.60;22.80
69628;DHT22;56850;51.984;5.088;2022-07-18T13:40:57;38.70;22.60
69628;DHT22;56850;51.984;5.088;2022-07-18T13:43:24;38.70;22.50
69628;DHT22;56850;51.984;5.088;2022-07-18T13:45:51;38.60;22.20
69628;DHT22;56850;51.984;5.088;2022-07-18T13:48:18;38.50;22.30
69628;DHT22;56850;51.984;5.088;2022-07-18T13:50:45;38.50;22.40
69628;DHT22;56850;51.984;5.088;2022-07-18T13:53:12;38.30;22.50
69628;DHT22;56850;51.984;5.088;2022-07-18T13:55:39;38.30;22.30
69628;DHT22;56850;51.984;5.088;2022-07-18T13:58:06;38.40;22.80
69628;DHT22;56850;51.984;5.088;2022-07-18T14:00:33;38.50;23.00
69628;DHT22;56850;51.984;5.088;2022-07-18T14:03:00;38.50;23.20
69628;DHT22;56850;51.984;5.088;2022-07-18T14:05:27;38.50;23.50
69628;DHT22;56850;51.984;5.088;2022-07-18T14:07:54;38.60;23.70
69628;DHT22;56850;51.984;5.088;2022-07-18T14:10:21;38.70;23.80
69628;DHT22;56850;51.984;5.088;2022-07-18T14:12:48;38.90;23.90
69628;DHT22;56850;51.984;5.088;2022-07-18T14:15:15;39.00;23.90
69628;DHT22;56850;51.984;5.088;2022-07-18T14:17:42;39.10;23.90
69628;DHT22;56850;51.984;5.088;2022-07-18T14:20:10;39.20;23.90
69628;DHT22;56850;51.984;5.088;2022-07-18T14:22:38;39.30;23.60
69628;DHT22;56850;51.984;5.088;2022-07-18T14:25:08;39.40;23.20
69628;DHT22;56850;51.984;5.088;2022-07-18T14:27:36;39.30;23.10
69628;DHT22;56850;51.984;5.088;2022-07-18T14:30:05;39.30;23.20
69628;DHT22;56850;51.984;5.088;2022-07-18T14:32:33;39.20;23.30
69628;DHT22;56850;51.984;5.088;2022-07-18T14:35:03;39.10;23.40
69628;DHT22;56850;51.984;5.088;2022-07-18T14:37:30;39.00;23.40
69628;DHT22;56850;51.984;5.088;2022-07-18T14:39:57;39.00;23.80
69628;DHT22;56850;51.984;5.088;2022-07-18T14:42:24;39.00;23.90
69628;DHT22;56850;51.984;5.088;2022-07-18T14:44:53;39.10;23.90
69628;DHT22;56850;51.984;5.088;2022-07-18T14:47:20;39.20;23.70
69628;DHT22;56850;51.984;5.088;2022-07-18T14:49:47;39.20;23.70
69628;DHT22;56850;51.984;5.088;2022-07-18T14:52:13;39.10;23.80
69628;DHT22;56850;51.984;5.088;2022-07-18T14:54:40;39.10;23.90
69628;DHT22;56850;51.984;5.088;2022-07-18T14:57:07;39.10;23.90
69628;DHT22;56850;51.984;5.088;2022-07-18T14:59:35;39.00;23.70
69628;DHT22;56850;51.984;5.088;2022-07-18T15:02:02;38.90;23.90
69628;DHT22;56850;51.984;5.088;2022-07-18T15:04:34;38.90;24.20
69628;DHT22;56850;51.984;5.088;2022-07-18T15:07:01;39.00;24.30
69628;DHT22;56850;51.984;5.088;2022-07-18T15:09:28;38.90;24.40
69628;DHT22;56850;51.984;5.088;2022-07-18T15:12:00;38.80;24.20
69628;DHT22;56850;51.984;5.088;2022-07-18T15:14:27;38.60;24.50
69628;DHT22;56850;51.984;5.088;2022-07-18T15:16:54;38.50;24.80
69628;DHT22;56850;51.984;5.088;2022-07-18T15:19:21;38.60;24.80
69628;DHT22;56850;51.984;5.088;2022-07-18T15:21:48;38.70;24.80
69628;DHT22;56850;51.984;5.088;2022-07-18T15:24:15;38.60;24.60
69628;DHT22;56850;51.984;5.088;2022-07-18T15:26:43;38.50;24.60
69628;DHT22;56850;51.984;5.088;2022-07-18T15:29:09;38.40;24.80
69628;DHT22;56850;51.984;5.088;2022-07-18T15:31:36;38.40;24.80
69628;DHT22;56850;51.984;5.088;2022-07-18T15:34:03;38.30;24.80
69628;DHT22;56850;51.984;5.088;2022-07-18T15:36:30;38.30;24.90
69628;DHT22;56850;51.984;5.088;2022-07-18T15:38:57;38.30;24.90
69628;DHT22;56850;51.984;5.088;2022-07-18T15:41:24;38.40;24.90
69628;DHT22;56850;51.984;5.088;2022-07-18T15:43:51;38.50;24.70
69628;DHT22;56850;51.984;5.088;2022-07-18T15:46:23;38.50;24.60
69628;DHT22;56850;51.984;5.088;2022-07-18T15:48:50;38.50;24.60
69628;DHT22;56850;51.984;5.088;2022-07-18T15:51:17;38.50;24.80
69628;DHT22;56850;51.984;5.088;2022-07-18T15:53:45;38.60;24.90
69628;DHT22;56850;51.984;5.088;2022-07-18T15:56:12;38.50;24.80
69628;DHT22;56850;51.984;5.088;2022-07-18T15:58:39;38.50;24.80
69628;DHT22;56850;51.984;5.088;2022-07-18T16:01:05;38.60;24.90
69628;DHT22;56850;51.984;5.088;2022-07-18T16:03:32;38.60;24.80
69628;DHT22;56850;51.984;5.088;2022-07-18T16:05:59;38.60;24.70